Time;durP1;ratioP1;P1;durP2;ratioP2;P2;SDS_P1;SDS_P2;PMS_P1;PMS_P2;Temp;Humidity;BMP_temperature;BMP_pressure;BME280_temperature;BME280_humidity;BME280_pressure;Samples;Min_cycle;Max_cycle;Signal;HPM_P1;HPM_P2
2023/02/11 00:01:20;;;;;;;32.53;15.02;;;;;;;;;;5014133;28;20222;-74
2023/02/11 00:03:49;;;;;;;44.92;19.95;;;;;;;;;;5016664;28;20210;-75
2023/02/11 00:06:17;;;;;;;23.08;12.05;;;;;;;;;;5018302;28;20222;-74
2023/02/11 00:08:52;;;;;;;16.25;9.27;;;;;;;;;;5020435;28;20230;-72
2023/02/11 00:11:24;;;;;;;33.60;13.65;;;;;;;;;;5020276;28;20304;-73
2023/02/11 00:14:01;;;;;;;34.47;18.48;;;;;;;;;;5020032;28;20561;-75
2023/02/11 00:19:39;;;;;;;173.15;54.28;;;;;;;;;;5019187;28;20225;-73
2023/02/11 00:22:21;;;;;;;56.15;29.58;;;;;;;;;;5017926;28;20215;-73
2023/02/11 00:24:53;;;;;;;75.38;29.25;;;;;;;;;;5017363;28;20321;-73
2023/02/11 00:27:23;;;;;;;69.80;23.05;;;;;;;;;;5020573;28;20214;-74
2023/02/11 00:29:54;;;;;;;111.22;39.35;;;;;;;;;;5017503;28;20227;-75
2023/02/11 00:32:23;;;;;;;25.98;9.32;;;;;;;;;;5015328;28;20214;-74
2023/02/11 00:34:54;;;;;;;34.75;15.13;;;;;;;;;;5017868;28;20210;-75
2023/02/11 00:37:23;;;;;;;129.27;44.70;;;;;;;;;;5015881;28;20245;-74
2023/02/11 00:39:52;;;;;;;21.23;11.23;;;;;;;;;;5020425;28;20244;-74
2023/02/11 00:42:21;;;;;;;70.18;28.67;;;;;;;;;;5014619;28;20219;-75
2023/02/11 00:44:49;;;;;;;23.80;12.50;;;;;;;;;;5020330;28;20229;-76
2023/02/11 00:47:17;;;;;;;86.32;27.80;;;;;;;;;;5019561;28;20227;-75
2023/02/11 00:49:48;;;;;;;181.35;58.22;;;;;;;;;;5019220;28;20227;-74
2023/02/11 00:52:18;;;;;;;18.23;11.90;;;;;;;;;;5020192;28;20226;-73
2023/02/11 00:54:49;;;;;;;90.28;30.55;;;;;;;;;;5019741;28;20556;-73
2023/02/11 00:57:52;;;;;;;;;;;;;;;;;;;;;
2023/02/11 01:00:27;;;;;;;59.88;22.70;;;;;;;;;;5011464;28;20215;-73
2023/02/11 01:02:55;;;;;;;160.43;49.08;;;;;;;;;;5021129;28;20224;-73
2023/02/11 01:05:35;;;;;;;150.32;47.72;;;;;;;;;;5019664;28;20233;-75
2023/02/11 01:08:05;;;;;;;40.55;16.20;;;;;;;;;;5017302;28;20206;-74
2023/02/11 01:13:29;;;;;;;27.48;15.63;;;;;;;;;;5010700;28;20260;-75
2023/02/11 01:16:08;;;;;;;125.43;39.63;;;;;;;;;;5018274;28;20488;-73
2023/02/11 01:19:09;;;;;;;72.22;27.23;;;;;;;;;;5020076;28;20238;-74
2023/02/11 01:21:37;;;;;;;177.82;58.75;;;;;;;;;;5020267;28;20226;-73
2023/02/11 01:24:05;;;;;;;87.35;33.25;;;;;;;;;;5019314;28;20226;-75
2023/02/11 01:26:36;;;;;;;82.30;29.92;;;;;;;;;;5020098;28;20280;-75
2023/02/11 01:29:05;;;;;;;195.45;59.30;;;;;;;;;;5021021;28;20217;-73
2023/02/11 01:31:33;;;;;;;184.02;58.25;;;;;;;;;;5018757;28;20589;-74
2023/02/11 01:34:08;;;;;;;40.47;22.80;;;;;;;;;;5023582;28;20236;-74
2023/02/11 01:36:40;;;;;;;58.40;23.15;;;;;;;;;;5019456;28;20214;-74
2023/02/11 01:39:09;;;;;;;114.95;36.28;;;;;;;;;;5020464;28;20588;-74
2023/02/11 01:41:36;;;;;;;147.98;47.83;;;;;;;;;;5020604;28;20595;-74
2023/02/11 01:44:23;;;;;;;139.35;43.35;;;;;;;;;;5020871;28;20611;-74
2023/02/11 01:46:55;;;;;;;145.75;46.63;;;;;;;;;;5017909;28;20514;-74
2023/02/11 01:49:26;;;;;;;78.57;28.05;;;;;;;;;;5012747;28;20284;-74
2023/02/11 01:52:04;;;;;;;144.90;50.60;;;;;;;;;;5018449;28;20238;-74
2023/02/11 01:57:36;;;;;;;79.10;30.30;;;;;;;;;;4983953;28;20293;-74
2023/02/11 02:00:08;;;;;;;187.23;57.20;;;;;;;;;;5001083;28;20611;-73
2023/02/11 02:02:47;;;;;;;9.50;6.05;;;;;;;;;;5000382;28;20612;-74
2023/02/11 02:05:23;;;;;;;72.30;24.08;;;;;;;;;;5019140;28;20534;-74
2023/02/11 02:08:00;;;;;;;73.53;27.00;;;;;;;;;;5018887;28;20214;-74
2023/02/11 02:10:31;;;;;;;71.47;28.05;;;;;;;;;;5018546;28;20218;-74
2023/02/11 02:13:00;;;;;;;66.28;24.77;;;;;;;;;;5017610;28;20225;-74
2023/02/11 02:15:30;;;;;;;108.25;36.72;;;;;;;;;;5018681;28;20288;-75
2023/02/11 02:18:02;;;;;;;17.38;9.80;;;;;;;;;;5018722;28;20356;-75
2023/02/11 02:20:50;;;;;;;19.98;12.95;;;;;;;;;;5015738;28;20219;-74
2023/02/11 02:23:26;;;;;;;23.52;13.02;;;;;;;;;;5018488;28;20216;-74
2023/02/11 02:26:18;;;;;;;35.80;14.18;;;;;;;;;;5022010;28;20304;-73
2023/02/11 02:28:59;;;;;;;22.80;12.93;;;;;;;;;;5019200;28;20325;-72
2023/02/11 02:31:48;;;;;;;172.90;59.13;;;;;;;;;;5018109;28;20217;-73
2023/02/11 02:34:20;;;;;;;144.80;47.63;;;;;;;;;;5017322;28;20218;-74
2023/02/11 02:36:53;;;;;;;138.93;43.80;;;;;;;;;;5012616;28;20211;-75
2023/02/11 02:39:26;;;;;;;74.10;26.65;;;;;;;;;;5016440;28;20215;-74
2023/02/11 02:41:54;;;;;;;126.15;40.95;;;;;;;;;;5015277;28;20214;-75
2023/02/11 02:44:23;;;;;;;75.13;23.98;;;;;;;;;;5017128;28;20306;-74
2023/02/11 02:46:51;;;;;;;136.10;46.58;;;;;;;;;;5016289;28;20611;-74
2023/02/11 02:49:23;;;;;;;38.63;14.27;;;;;;;;;;5018166;28;20293;-74
2023/02/11 02:52:03;;;;;;;14.98;7.97;;;;;;;;;;5017619;28;20592;-74
2023/02/11 02:54:41;;;;;;;16.98;9.57;;;;;;;;;;5017819;28;20218;-74
2023/02/11 02:57:17;;;;;;;128.50;41.72;;;;;;;;;;5018063;28;20206;-74
2023/02/11 02:59:49;;;;;;;115.75;38.92;;;;;;;;;;5018318;28;20217;-74
2023/02/11 03:02:21;;;;;;;153.20;48.55;;;;;;;;;;5018061;28;20226;-74
2023/02/11 03:04:58;;;;;;;158.07;53.72;;;;;;;;;;5017370;28;20507;-74
2023/02/11 03:07:30;;;;;;;175.10;55.35;;;;;;;;;;5017354;28;20218;-73
2023/02/11 03:10:06;;;;;;;108.68;40.45;;;;;;;;;;5017693;28;20215;-75
2023/02/11 03:12:34;;;;;;;144.43;47.22;;;;;;;;;;5016610;28;20210;-75
2023/02/11 03:15:04;;;;;;;68.35;22.77;;;;;;;;;;5017067;28;20226;-74
2023/02/11 03:17:35;;;;;;;158.60;49.53;;;;;;;;;;5017203;28;20230;-74
2023/02/11 03:20:18;;;;;;;79.82;24.15;;;;;;;;;;5005552;28;20254;-74
2023/02/11 03:22:47;;;;;;;149.18;47.83;;;;;;;;;;4998178;28;20239;-74
2023/02/11 03:25:28;;;;;;;134.80;41.58;;;;;;;;;;5009724;28;20217;-75
2023/02/11 03:28:07;;;;;;;81.70;27.30;;;;;;;;;;5010339;28;20727;-74
2023/02/11 03:30:43;;;;;;;79.05;27.90;;;;;;;;;;5006444;28;20211;-75
2023/02/11 03:33:15;;;;;;;77.72;25.08;;;;;;;;;;5017545;28;20218;-74
2023/02/11 03:35:48;;;;;;;124.47;32.03;;;;;;;;;;5017062;28;20215;-74
2023/02/11 03:38:18;;;;;;;87.63;29.77;;;;;;;;;;5011514;28;20231;-75
2023/02/11 03:40:46;;;;;;;83.85;27.15;;;;;;;;;;5014580;28;20214;-74
2023/02/11 03:43:16;;;;;;;77.80;28.08;;;;;;;;;;5020589;28;20232;-75
2023/02/11 03:45:45;;;;;;;159.35;49.40;;;;;;;;;;5017936;28;20235;-72
2023/02/11 03:48:15;;;;;;;85.03;28.42;;;;;;;;;;5021122;28;20211;-75
2023/02/11 03:50:46;;;;;;;48.20;21.45;;;;;;;;;;5021098;28;20215;-73
2023/02/11 03:53:15;;;;;;;96.20;33.58;;;;;;;;;;5021333;28;20588;-73
2023/02/11 03:55:44;;;;;;;126.85;42.95;;;;;;;;;;5018186;28;20234;-74
2023/02/11 03:58:11;;;;;;;40.40;16.95;;;;;;;;;;5001305;28;20239;-73
2023/02/11 04:00:41;;;;;;;126.55;42.75;;;;;;;;;;5017615;28;20245;-75
2023/02/11 04:03:13;;;;;;;175.82;56.45;;;;;;;;;;5020978;28;20289;-75
2023/02/11 04:05:41;;;;;;;28.38;13.93;;;;;;;;;;5021046;28;20544;-74
2023/02/11 04:08:10;;;;;;;73.03;33.25;;;;;;;;;;5021427;28;20237;-75
2023/02/11 04:10:38;;;;;;;33.55;12.10;;;;;;;;;;5020392;28;20218;-75
2023/02/11 04:13:05;;;;;;;108.15;38.00;;;;;;;;;;5010237;28;20215;-74
2023/02/11 04:15:34;;;;;;;105.40;38.22;;;;;;;;;;5000713;28;20225;-74
2023/02/11 04:18:02;;;;;;;52.33;21.02;;;;;;;;;;5015145;28;20235;-74
2023/02/11 04:20:30;;;;;;;59.55;24.58;;;;;;;;;;5020961;28;20280;-73
2023/02/11 04:22:59;;;;;;;136.05;46.25;;;;;;;;;;5018865;28;20273;-74
2023/02/11 04:25:28;;;;;;;74.10;25.15;;;;;;;;;;5020363;28;20272;-72
2023/02/11 04:27:56;;;;;;;88.30;28.80;;;;;;;;;;5020425;28;20220;-74
2023/02/11 04:30:28;;;;;;;175.32;55.25;;;;;;;;;;5020419;28;20607;-74
2023/02/11 04:32:56;;;;;;;125.35;42.03;;;;;;;;;;5020018;28;20225;-74
2023/02/11 04:35:24;;;;;;;106.60;32.13;;;;;;;;;;5020332;28;20211;-74
2023/02/11 04:37:52;;;;;;;134.90;45.10;;;;;;;;;;5019848;28;20230;-74
2023/02/11 04:40:20;;;;;;;178.82;56.97;;;;;;;;;;5019917;28;20230;-74
2023/02/11 04:42:49;;;;;;;156.48;45.13;;;;;;;;;;5020295;28;20226;-74
2023/02/11 04:45:17;;;;;;;73.63;27.75;;;;;;;;;;5007110;28;20212;-74
2023/02/11 04:47:45;;;;;;;191.73;56.13;;;;;;;;;;5000471;28;20223;-74
2023/02/11 04:50:13;;;;;;;87.07;26.35;;;;;;;;;;5000327;28;20222;-74
2023/02/11 04:52:40;;;;;;;160.55;50.38;;;;;;;;;;4999788;28;20225;-75
2023/02/11 04:55:08;;;;;;;96.20;29.08;;;;;;;;;;5000943;28;20220;-74
2023/02/11 04:57:36;;;;;;;155.77;49.08;;;;;;;;;;5000312;28;20224;-74
2023/02/11 05:00:06;;;;;;;25.27;11.75;;;;;;;;;;5005330;28;20211;-74
2023/02/11 05:02:34;;;;;;;80.35;25.50;;;;;;;;;;5019896;28;20226;-74
2023/02/11 05:05:02;;;;;;;78.97;31.05;;;;;;;;;;5019928;28;20229;-75
2023/02/11 05:07:34;;;;;;;101.53;31.15;;;;;;;;;;5020518;28;20225;-75
2023/02/11 05:10:03;;;;;;;174.82;53.50;;;;;;;;;;5020058;28;20225;-75
2023/02/11 05:12:34;;;;;;;178.93;53.95;;;;;;;;;;5020360;28;20550;-76
2023/02/11 05:15:02;;;;;;;94.55;28.45;;;;;;;;;;5020304;28;20632;-74
2023/02/11 05:17:31;;;;;;;75.22;25.42;;;;;;;;;;5017862;28;20279;-74
2023/02/11 05:19:59;;;;;;;216.95;63.63;;;;;;;;;;5000949;28;20245;-73
2023/02/11 05:22:27;;;;;;;161.05;52.80;;;;;;;;;;5001528;28;20234;-75
2023/02/11 05:24:54;;;;;;;93.97;28.98;;;;;;;;;;5000152;28;20229;-74
2023/02/11 05:27:22;;;;;;;96.07;28.60;;;;;;;;;;4999864;28;20583;-75
2023/02/11 05:29:49;;;;;;;221.93;66.05;;;;;;;;;;4999719;28;20234;-74
2023/02/11 05:32:17;;;;;;;215.57;64.65;;;;;;;;;;5000171;28;20487;-75
2023/02/11 05:34:46;;;;;;;79.18;25.67;;;;;;;;;;5000378;28;20480;-74
2023/02/11 05:37:20;;;;;;;94.25;30.30;;;;;;;;;;4999769;28;20219;-74
2023/02/11 05:39:48;;;;;;;147.18;48.88;;;;;;;;;;4999372;28;20239;-74
2023/02/11 05:42:16;;;;;;;96.80;31.48;;;;;;;;;;5013865;28;20221;-74
2023/02/11 05:44:44;;;;;;;90.07;29.25;;;;;;;;;;5019711;28;20603;-74
2023/02/11 05:47:12;;;;;;;170.30;53.95;;;;;;;;;;5018990;28;20260;-74
2023/02/11 05:49:39;;;;;;;96.78;31.45;;;;;;;;;;5019309;28;20226;-74
2023/02/11 05:52:11;;;;;;;213.18;64.63;;;;;;;;;;5019232;28;20225;-73
2023/02/11 05:54:39;;;;;;;142.63;48.38;;;;;;;;;;5018694;28;20222;-73
2023/02/11 05:57:09;;;;;;;141.73;46.28;;;;;;;;;;5000541;28;20309;-73
2023/02/11 05:59:39;;;;;;;143.65;46.78;;;;;;;;;;5007459;28;20241;-73
2023/02/11 06:02:08;;;;;;;88.88;27.70;;;;;;;;;;5019761;28;20319;-73
2023/02/11 06:04:37;;;;;;;216.25;63.60;;;;;;;;;;5018943;28;20230;-72
2023/02/11 06:07:05;;;;;;;220.35;64.88;;;;;;;;;;5011483;28;20219;-73
2023/02/11 06:09:34;;;;;;;215.60;65.57;;;;;;;;;;5000076;28;20216;-72
2023/02/11 06:12:02;;;;;;;95.05;28.90;;;;;;;;;;5000410;28;20257;-75
2023/02/11 06:14:33;;;;;;;5.57;5.03;;;;;;;;;;5003544;28;20526;-73
2023/02/11 06:17:00;;;;;;;165.07;53.42;;;;;;;;;;5018400;28;20254;-75
2023/02/11 06:19:28;;;;;;;166.52;53.08;;;;;;;;;;5016805;28;20307;-75
2023/02/11 06:21:57;;;;;;;140.30;46.25;;;;;;;;;;5004019;28;20230;-74
2023/02/11 06:24:25;;;;;;;218.90;63.92;;;;;;;;;;5019561;28;20498;-75
2023/02/11 06:26:54;;;;;;;163.32;52.25;;;;;;;;;;4998656;28;20280;-74
2023/02/11 06:29:21;;;;;;;226.68;65.97;;;;;;;;;;4998554;28;20281;-74
2023/02/11 06:31:49;;;;;;;223.25;66.35;;;;;;;;;;4998683;28;20219;-75
2023/02/11 06:34:19;;;;;;;184.52;55.22;;;;;;;;;;4998756;28;20541;-73
2023/02/11 06:36:47;;;;;;;191.85;57.65;;;;;;;;;;4998529;28;20666;-74
2023/02/11 06:39:17;;;;;;;93.80;29.30;;;;;;;;;;4998211;28;20246;-74
2023/02/11 06:41:44;;;;;;;176.88;53.60;;;;;;;;;;4998452;28;20225;-74
2023/02/11 06:44:14;;;;;;;230.57;68.45;;;;;;;;;;5002399;28;20246;-74
2023/02/11 06:46:42;;;;;;;189.95;56.63;;;;;;;;;;5016714;28;20624;-74
2023/02/11 06:49:09;;;;;;;153.30;51.78;;;;;;;;;;5016666;28;20230;-73
2023/02/11 06:51:37;;;;;;;93.47;29.63;;;;;;;;;;5010226;28;20213;-74
2023/02/11 06:54:10;;;;;;;172.00;53.20;;;;;;;;;;5016848;28;20233;-74
2023/02/11 06:56:40;;;;;;;163.15;53.45;;;;;;;;;;5001675;28;20223;-72
2023/02/11 06:59:08;;;;;;;173.30;55.67;;;;;;;;;;4998912;28;20236;-75
2023/02/11 07:01:38;;;;;;;162.32;53.28;;;;;;;;;;5017460;28;20211;-75
2023/02/11 07:04:07;;;;;;;103.70;33.15;;;;;;;;;;5020173;28;20207;-74
2023/02/11 07:06:36;;;;;;;95.80;30.13;;;;;;;;;;5014091;28;20251;-74
2023/02/11 07:09:04;;;;;;;147.00;49.30;;;;;;;;;;5013325;28;20225;-74
2023/02/11 07:11:33;;;;;;;166.07;53.45;;;;;;;;;;5020152;28;20218;-73
2023/02/11 07:14:03;;;;;;;160.18;50.88;;;;;;;;;;5018118;28;20218;-74
2023/02/11 07:16:32;;;;;;;228.93;67.15;;;;;;;;;;5010271;28;20218;-74
2023/02/11 07:19:02;;;;;;;167.23;54.13;;;;;;;;;;5016756;28;20243;-74
2023/02/11 07:21:44;;;;;;;102.93;35.83;;;;;;;;;;5017463;28;20228;-75
2023/02/11 07:24:14;;;;;;;170.30;52.70;;;;;;;;;;4997104;28;20222;-74
2023/02/11 07:26:53;;;;;;;160.77;53.15;;;;;;;;;;4997250;28;20319;-74
2023/02/11 07:32:43;;;;;;;189.52;57.10;;;;;;;;;;4977974;28;20365;-74
2023/02/11 07:35:18;;;;;;;93.70;31.55;;;;;;;;;;4982931;28;20224;-74
2023/02/11 07:37:48;;;;;;;173.70;51.85;;;;;;;;;;4978112;28;20219;-75
2023/02/11 07:40:16;;;;;;;189.52;55.33;;;;;;;;;;4980785;28;20490;-73
2023/02/11 07:42:48;;;;;;;177.95;52.42;;;;;;;;;;4994653;28;20228;-75
2023/02/11 07:45:20;;;;;;;222.18;68.30;;;;;;;;;;4988923;28;20249;-74
2023/02/11 07:47:48;;;;;;;226.50;69.40;;;;;;;;;;4979333;28;20264;-75
2023/02/11 07:50:25;;;;;;;199.90;56.50;;;;;;;;;;4982749;28;20310;-74
2023/02/11 07:52:53;;;;;;;232.43;68.72;;;;;;;;;;4994962;28;20494;-74
2023/02/11 07:55:22;;;;;;;172.70;54.72;;;;;;;;;;4996268;28;20216;-74
2023/02/11 07:57:51;;;;;;;149.65;51.60;;;;;;;;;;4996440;28;20215;-74
2023/02/11 08:00:18;;;;;;;168.02;53.72;;;;;;;;;;4985081;28;20244;-74
2023/02/11 08:02:46;;;;;;;190.77;54.50;;;;;;;;;;4995794;28;20228;-74
2023/02/11 08:05:17;;;;;;;232.18;69.07;;;;;;;;;;4996111;28;20703;-74
2023/02/11 08:07:46;;;;;;;194.82;59.30;;;;;;;;;;4986529;28;20226;-74
2023/02/11 08:10:14;;;;;;;219.50;68.70;;;;;;;;;;4992910;28;20617;-74
2023/02/11 08:12:45;;;;;;;168.25;56.65;;;;;;;;;;4988792;28;20337;-75
2023/02/11 08:15:13;;;;;;;187.02;59.70;;;;;;;;;;4978538;28;20219;-74
2023/02/11 08:17:41;;;;;;;220.60;60.38;;;;;;;;;;4988407;28;20286;-74
2023/02/11 08:20:15;;;;;;;191.07;57.33;;;;;;;;;;4995877;28;20263;-74
2023/02/11 08:25:42;;;;;;;167.73;56.08;;;;;;;;;;5015545;28;20225;-74
2023/02/11 08:28:10;;;;;;;168.25;53.35;;;;;;;;;;5018115;28;20241;-76
2023/02/11 08:30:41;;;;;;;229.32;71.68;;;;;;;;;;5010508;28;20308;-74
2023/02/11 08:33:11;;;;;;;232.73;75.05;;;;;;;;;;5008948;28;20234;-75
2023/02/11 08:35:40;;;;;;;174.13;57.97;;;;;;;;;;5010581;28;20210;-75
2023/02/11 08:38:08;;;;;;;171.82;54.05;;;;;;;;;;5018703;28;20555;-75
2023/02/11 08:40:38;;;;;;;172.45;54.42;;;;;;;;;;5019292;28;20623;-73
2023/02/11 08:43:12;;;;;;;174.63;58.95;;;;;;;;;;5020001;28;20214;-74
2023/02/11 08:45:45;;;;;;;235.63;70.15;;;;;;;;;;5018767;28;20256;-75
2023/02/11 08:48:28;;;;;;;166.52;58.22;;;;;;;;;;5015085;28;20222;-74
2023/02/11 08:51:02;;;;;;;198.05;62.15;;;;;;;;;;5013346;28;20218;-75
2023/02/11 08:53:33;;;;;;;235.93;74.85;;;;;;;;;;5016459;28;20473;-76
2023/02/11 08:56:14;;;;;;;180.82;57.97;;;;;;;;;;5006621;28;20223;-74
2023/02/11 08:58:45;;;;;;;229.18;68.45;;;;;;;;;;4999437;28;20226;-74
2023/02/11 09:04:04;;;;;;;162.63;54.58;;;;;;;;;;5019260;28;20210;-76
2023/02/11 09:06:47;;;;;;;;;;;;;;;;;;;;;
2023/02/11 09:09:17;;;;;;;237.38;74.35;;;;;;;;;;5014551;28;20579;-75
2023/02/11 09:11:56;;;;;;;192.18;59.55;;;;;;;;;;5017971;28;20617;-75
2023/02/11 09:14:31;;;;;;;240.40;74.85;;;;;;;;;;5016266;28;20217;-75
2023/02/11 09:16:59;;;;;;;194.27;62.05;;;;;;;;;;5015574;28;20486;-74
2023/02/11 09:19:27;;;;;;;201.65;68.97;;;;;;;;;;5007860;28;20301;-74
2023/02/11 09:22:03;;;;;;;239.40;74.35;;;;;;;;;;4999189;28;20233;-74
2023/02/11 09:24:34;;;;;;;177.52;63.13;;;;;;;;;;4997246;28;20273;-75
2023/02/11 09:27:11;;;;;;;179.93;57.95;;;;;;;;;;4988293;28;20780;-74
2023/02/11 09:29:52;;;;;;;231.32;74.68;;;;;;;;;;4979275;28;20224;-75
2023/02/11 09:32:20;;;;;;;241.90;77.93;;;;;;;;;;4979204;28;20220;-75
2023/02/11 09:34:55;;;;;;;230.88;74.13;;;;;;;;;;4987918;28;20258;-75
2023/02/11 09:37:35;;;;;;;177.95;64.47;;;;;;;;;;4997039;28;20251;-75
2023/02/11 09:40:04;;;;;;;169.20;60.90;;;;;;;;;;4997009;28;20259;-75
2023/02/11 09:45:46;;;;;;;223.30;74.78;;;;;;;;;;4997265;28;20202;-76
2023/02/11 09:48:15;;;;;;;194.38;63.67;;;;;;;;;;4996509;28;20219;-75
2023/02/11 09:50:50;;;;;;;152.15;57.13;;;;;;;;;;4998835;28;20628;-74
2023/02/11 09:53:24;;;;;;;198.70;64.32;;;;;;;;;;4995761;28;20215;-74
2023/02/11 09:56:04;;;;;;;200.43;63.50;;;;;;;;;;4996630;28;20223;-73
2023/02/11 09:58:34;;;;;;;202.98;66.28;;;;;;;;;;4991567;28;20211;-74
2023/02/11 10:01:08;;;;;;;198.30;62.78;;;;;;;;;;4990369;28;20235;-74
2023/02/11 10:03:56;;;;;;;196.80;61.95;;;;;;;;;;4994018;28;20223;-73
2023/02/11 10:06:34;;;;;;;239.07;73.45;;;;;;;;;;4953293;28;20224;-75
2023/02/11 10:09:16;;;;;;;198.88;59.92;;;;;;;;;;4985693;28;20230;-75
2023/02/11 10:11:51;;;;;;;244.20;76.07;;;;;;;;;;4991082;28;20691;-75
2023/02/11 10:14:40;;;;;;;199.70;65.78;;;;;;;;;;4995419;28;20391;-75
2023/02/11 10:17:21;;;;;;;189.57;62.78;;;;;;;;;;4988561;28;20238;-73
2023/02/11 10:20:07;;;;;;;242.82;74.97;;;;;;;;;;4989098;28;20329;-75
2023/02/11 10:22:38;;;;;;;226.45;74.40;;;;;;;;;;5000788;28;20229;-74
2023/02/11 10:25:18;;;;;;;235.75;75.60;;;;;;;;;;5005096;28;20218;-75
2023/02/11 10:27:52;;;;;;;174.45;60.35;;;;;;;;;;4999885;28;20207;-75
2023/02/11 10:30:27;;;;;;;199.07;63.05;;;;;;;;;;4999117;28;20206;-75
2023/02/11 10:33:10;;;;;;;236.43;73.75;;;;;;;;;;4999441;28;20218;-75
2023/02/11 10:35:45;;;;;;;179.50;63.38;;;;;;;;;;5001135;28;20206;-75
2023/02/11 10:38:27;;;;;;;183.50;64.95;;;;;;;;;;5017177;28;20216;-74
2023/02/11 10:40:59;;;;;;;195.75;65.70;;;;;;;;;;5007844;28;20335;-75
2023/02/11 10:43:42;;;;;;;243.00;76.13;;;;;;;;;;5006476;28;20456;-76
2023/02/11 10:46:20;;;;;;;231.80;71.10;;;;;;;;;;5030536;28;20297;-75
2023/02/11 10:48:56;;;;;;;220.93;74.68;;;;;;;;;;5024877;28;20322;-75
2023/02/11 10:51:25;;;;;;;233.95;71.55;;;;;;;;;;5014192;28;20329;-75
2023/02/11 10:54:18;;;;;;;196.35;60.47;;;;;;;;;;5012868;28;20219;-75
2023/02/11 10:56:49;;;;;;;202.93;63.72;;;;;;;;;;5016388;28;20218;-74
2023/02/11 10:59:26;;;;;;;186.65;60.45;;;;;;;;;;5014547;28;20738;-75
2023/02/11 11:02:06;;;;;;;174.70;60.63;;;;;;;;;;5014906;28;20214;-74
2023/02/11 11:04:43;;;;;;;241.20;72.32;;;;;;;;;;5016463;28;20653;-75
2023/02/11 11:07:13;;;;;;;181.82;62.10;;;;;;;;;;4998965;28;20210;-75
2023/02/11 11:09:45;;;;;;;177.32;57.55;;;;;;;;;;5009653;28;20276;-75
2023/02/11 11:12:28;;;;;;;197.48;59.85;;;;;;;;;;5010825;28;20241;-75
2023/02/11 11:17:39;;;;;;;192.50;59.60;;;;;;;;;;5012736;28;20219;-75
2023/02/11 11:20:42;;;;;;;170.90;58.17;;;;;;;;;;5010655;28;20251;-76
2023/02/11 11:23:28;;;;;;;190.60;62.03;;;;;;;;;;5032622;28;20661;-76
2023/02/11 11:26:04;;;;;;;235.30;72.90;;;;;;;;;;5033578;28;20221;-75
2023/02/11 11:28:51;;;;;;;186.40;57.30;;;;;;;;;;5001003;28;20384;-75
2023/02/11 11:31:27;;;;;;;195.10;61.97;;;;;;;;;;5008245;28;20211;-76
2023/02/11 11:33:56;;;;;;;168.80;58.08;;;;;;;;;;5015813;28;20234;-74
2023/02/11 11:36:35;;;;;;;243.73;75.53;;;;;;;;;;5015197;28;20739;-76
2023/02/11 11:39:24;;;;;;;178.77;61.13;;;;;;;;;;5006404;28;20322;-74
2023/02/11 11:47:51;;;;;;;198.60;62.47;;;;;;;;;;5012807;28;20213;-74
2023/02/11 11:50:54;;;;;;;202.80;67.18;;;;;;;;;;5009406;28;20211;-74
2023/02/11 11:53:43;;;;;;;233.23;75.68;;;;;;;;;;5011604;28;20226;-75
2023/02/11 11:56:32;;;;;;;189.43;63.55;;;;;;;;;;5013812;28;20220;-75
2023/02/11 11:59:07;;;;;;;178.98;61.75;;;;;;;;;;5014845;28;20218;-75
2023/02/11 12:05:10;;;;;;;192.27;63.03;;;;;;;;;;4964628;28;20238;-74
2023/02/11 12:07:49;;;;;;;200.02;65.28;;;;;;;;;;5012300;28;20534;-75
2023/02/11 12:10:40;;;;;;;176.48;61.65;;;;;;;;;;5011434;28;20314;-75
2023/02/11 12:13:22;;;;;;;194.23;64.65;;;;;;;;;;4998355;28;20317;-74
2023/02/11 12:21:33;;;;;;;153.35;51.55;;;;;;;;;;5011589;28;20254;-74
2023/02/11 12:24:22;;;;;;;193.43;59.58;;;;;;;;;;5017655;28;20309;-75
2023/02/11 12:27:13;;;;;;;198.27;67.55;;;;;;;;;;5015886;28;20211;-76
2023/02/11 12:30:10;;;;;;;182.13;64.20;;;;;;;;;;5006079;28;20306;-77
2023/02/11 12:36:01;;;;;;;199.32;62.63;;;;;;;;;;5017870;28;20622;-76
2023/02/11 12:38:45;;;;;;;244.82;84.07;;;;;;;;;;5018009;28;20214;-75
2023/02/11 12:44:36;;;;;;;238.90;76.50;;;;;;;;;;4998887;28;20253;-75
2023/02/11 12:47:25;;;;;;;170.73;59.78;;;;;;;;;;4998522;28;20254;-73
2023/02/11 12:50:14;;;;;;;241.13;74.28;;;;;;;;;;5003195;28;20291;-74
2023/02/11 12:53:09;;;;;;;178.93;60.50;;;;;;;;;;4999069;28;20285;-74
2023/02/11 12:58:40;;;;;;;198.52;62.90;;;;;;;;;;5015320;28;20361;-74
2023/02/11 13:01:32;;;;;;;195.98;60.72;;;;;;;;;;5016971;28;20330;-75
2023/02/11 13:04:08;;;;;;;201.07;64.40;;;;;;;;;;5018028;28;20315;-74
2023/02/11 13:06:39;;;;;;;239.02;76.75;;;;;;;;;;5016002;28;20230;-75
2023/02/11 13:09:11;;;;;;;201.00;64.53;;;;;;;;;;5017890;28;20666;-74
2023/02/11 13:11:50;;;;;;;190.98;59.45;;;;;;;;;;5017827;28;20305;-74
2023/02/11 13:17:26;;;;;;;204.05;64.55;;;;;;;;;;5015106;28;20298;-74
2023/02/11 13:20:04;;;;;;;183.02;57.80;;;;;;;;;;5019564;28;20222;-73
2023/02/11 13:22:43;;;;;;;190.25;57.33;;;;;;;;;;5014897;28;20238;-75
2023/02/11 13:25:20;;;;;;;170.65;56.25;;;;;;;;;;5010117;28;20346;-75
2023/02/11 13:27:57;;;;;;;236.70;74.15;;;;;;;;;;5002736;28;20215;-74
2023/02/11 13:30:50;;;;;;;231.80;68.43;;;;;;;;;;5012639;28;20237;-74
2023/02/11 13:33:34;;;;;;;174.20;57.17;;;;;;;;;;5017923;28;20219;-74
2023/02/11 13:39:24;;;;;;;248.77;77.53;;;;;;;;;;4974092;28;20223;-74
2023/02/11 13:48:05;;;;;;;177.70;59.35;;;;;;;;;;4989430;28;20207;-74
2023/02/11 13:56:48;;;;;;;183.50;60.70;;;;;;;;;;5001045;28;20233;-73
2023/02/11 13:59:32;;;;;;;189.85;60.80;;;;;;;;;;5011463;28;20276;-73
2023/02/11 14:12:11;;;;;;;240.80;77.60;;;;;;;;;;5010835;28;20673;-75
2023/02/11 14:27:20;;;;;;;201.50;61.92;;;;;;;;;;5011006;28;20288;-75
2023/02/11 14:36:19;;;;;;;180.88;61.25;;;;;;;;;;5013416;28;20233;-75
2023/02/11 14:41:41;;;;;;;184.73;65.30;;;;;;;;;;5013715;28;20286;-74
2023/02/11 14:44:15;;;;;;;255.77;79.63;;;;;;;;;;5001436;28;20371;-74
2023/02/11 14:46:52;;;;;;;250.82;80.18;;;;;;;;;;4997259;28;20507;-75
2023/02/11 14:49:29;;;;;;;249.30;73.40;;;;;;;;;;5002637;28;20551;-74
2023/02/11 14:55:21;;;;;;;202.00;63.42;;;;;;;;;;5012266;28;20664;-75
2023/02/11 14:58:15;;;;;;;250.80;78.45;;;;;;;;;;4999135;28;20502;-75
2023/02/11 15:00:52;;;;;;;207.75;68.30;;;;;;;;;;5004112;28;20222;-74
2023/02/11 15:07:22;;;;;;;174.15;59.20;;;;;;;;;;5007583;28;20903;-74
2023/02/11 15:19:22;;;;;;;235.18;71.07;;;;;;;;;;5012741;28;20284;-74
2023/02/11 15:21:59;;;;;;;242.45;74.07;;;;;;;;;;5018975;28;20319;-73
2023/02/11 15:24:33;;;;;;;235.88;72.07;;;;;;;;;;5014950;28;20210;-72
2023/02/11 15:27:24;;;;;;;180.98;58.75;;;;;;;;;;5013671;28;20221;-74
2023/02/11 15:29:58;;;;;;;236.98;73.78;;;;;;;;;;5007053;28;20264;-74
2023/02/11 15:32:32;;;;;;;176.00;59.15;;;;;;;;;;5016426;28;20207;-74
2023/02/11 15:35:22;;;;;;;193.68;56.75;;;;;;;;;;5002887;28;20219;-75
2023/02/11 15:44:47;;;;;;;199.73;61.22;;;;;;;;;;5013937;28;20885;-74
2023/02/11 15:47:19;;;;;;;195.77;60.35;;;;;;;;;;5007568;28;20214;-74
2023/02/11 15:49:48;;;;;;;188.48;59.63;;;;;;;;;;5018319;28;20605;-74
2023/02/11 15:52:25;;;;;;;177.10;58.85;;;;;;;;;;5018228;28;20479;-74
2023/02/11 15:55:08;;;;;;;185.27;57.55;;;;;;;;;;5012954;28;20317;-75
2023/02/11 15:57:44;;;;;;;198.18;61.03;;;;;;;;;;4999769;28;20265;-74
2023/02/11 16:00:24;;;;;;;193.73;59.38;;;;;;;;;;5009565;28;20222;-74
2023/02/11 16:02:55;;;;;;;175.88;57.95;;;;;;;;;;5019180;28;20230;-73
2023/02/11 16:05:27;;;;;;;245.38;73.80;;;;;;;;;;5018986;28;20681;-75
2023/02/11 16:07:55;;;;;;;197.75;63.05;;;;;;;;;;5019208;28;20224;-74
2023/02/11 16:10:27;;;;;;;180.05;59.97;;;;;;;;;;5018454;28;20289;-74
2023/02/11 16:13:01;;;;;;;197.48;60.13;;;;;;;;;;5018853;28;20262;-74
2023/02/11 16:15:33;;;;;;;197.77;60.92;;;;;;;;;;5016776;28;20214;-75
2023/02/11 16:18:03;;;;;;;178.18;59.22;;;;;;;;;;5015518;28;20222;-75
2023/02/11 16:20:34;;;;;;;238.77;71.45;;;;;;;;;;5015565;28;20479;-74
2023/02/11 16:23:03;;;;;;;177.38;58.83;;;;;;;;;;5018435;28;20238;-74
2023/02/11 16:25:32;;;;;;;198.10;60.83;;;;;;;;;;5014126;28;20720;-75
2023/02/11 16:28:07;;;;;;;177.13;58.78;;;;;;;;;;4999921;28;20227;-76
2023/02/11 16:30:36;;;;;;;237.85;75.40;;;;;;;;;;4999200;28;20219;-76
2023/02/11 16:33:17;;;;;;;238.68;73.05;;;;;;;;;;4999713;28;20331;-73
2023/02/11 16:35:47;;;;;;;192.63;59.70;;;;;;;;;;5000698;28;20592;-73
2023/02/11 16:38:18;;;;;;;195.98;60.63;;;;;;;;;;4983291;28;20215;-74
2023/02/11 16:40:51;;;;;;;174.30;58.67;;;;;;;;;;5001941;28;20219;-74
2023/02/11 16:43:21;;;;;;;235.18;72.07;;;;;;;;;;5004708;28;20230;-75
2023/02/11 16:46:02;;;;;;;177.23;59.58;;;;;;;;;;5003305;28;20297;-74
2023/02/11 16:48:33;;;;;;;191.43;60.30;;;;;;;;;;5016224;28;20214;-74